Time,TemperatureF,DewpointF,PressureIn,WindDirection,WindDirectionDegrees,WindSpeedMPH,WindSpeedGustMPH,Humidity,HourlyPrecipIn,Conditions,Clouds,dailyrainin,SoftwareType,DateUTC
2013-04-20 00:01:00,61.2,42.4,30.01,NNE,18,2.0,2.0,50,0.00,,,0.00,WeatherCatV1.15B25,2013-04-20 07:01:00,
2013-04-20 00:06:00,61.0,42.2,30.01,NNW,339,0.0,0.0,50,0.00,,,0.00,WeatherCatV1.15B25,2013-04-20 07:06:00,
2013-04-20 00:11:00,60.7,42.5,30.01,NNW,339,0.0,0.0,51,0.00,,,0.00,WeatherCatV1.15B25,2013-04-20 07:11:00,
2013-04-20 00:16:00,60.5,42.3,30.01,NNW,336,2.0,2.0,51,0.00,,,0.00,WeatherCatV1.15B25,2013-04-20 07:16:00,
2013-04-20 00:21:00,60.2,42.5,30.01,North,356,1.0,3.0,52,0.00,,,0.00,WeatherCatV1.15B25,2013-04-20 07:21:00,
2013-04-20 00:26:00,60.1,42.4,30.01,NNW,347,2.0,5.0,52,0.00,,,0.00,WeatherCatV1.15B25,2013-04-20 07:26:00,
2013-04-20 00:31:00,60.1,42.4,30.01,NNW,335,6.0,8.0,52,0.00,,,0.00,WeatherCatV1.15B25,2013-04-20 07:31:00,
2013-04-20 00:36:00,59.9,42.2,30.01,NNW,341,0.0,3.0,52,0.00,,,0.00,WeatherCatV1.15B25,2013-04-20 07:36:00,
2013-04-20 00:41:00,59.8,42.1,30.01,NNW,341,0.0,0.0,52,0.00,,,0.00,WeatherCatV1.15B25,2013-04-20 07:41:00,
2013-04-20 00:46:00,59.7,42.0,30.02,NNW,337,1.0,1.0,52,0.00,,,0.00,WeatherCatV1.15B25,2013-04-20 07:46:00,
2013-04-20 00:51:00,59.5,42.4,30.02,NNW,337,0.0,0.0,53,0.00,,,0.00,WeatherCatV1.15B25,2013-04-20 07:51:00,
2013-04-20 00:56:00,59.1,42.5,30.02,East,98,0.0,1.0,54,0.00,,,0.00,WeatherCatV1.15B25,2013-04-20 07:56:00,
2013-04-20 01:01:00,58.7,42.1,30.02,NNW,344,0.0,2.0,54,0.00,,,0.00,WeatherCatV1.15B25,2013-04-20 08:01:00,
2013-04-20 01:06:00,58.4,42.3,30.02,NNW,337,1.0,1.0,55,0.00,,,0.00,WeatherCatV1.15B25,2013-04-20 08:06:00,
2013-04-20 01:11:00,58.0,41.9,30.02,NNW,333,2.0,3.0,55,0.00,,,0.00,WeatherCatV1.15B25,2013-04-20 08:11:00,
2013-04-20 01:16:00,57.7,42.1,30.02,NNW,344,0.0,3.0,56,0.00,,,0.00,WeatherCatV1.15B25,2013-04-20 08:16:00,
2013-04-20 01:21:00,57.6,42.0,30.02,NNW,334,1.0,2.0,56,0.00,,,0.00,WeatherCatV1.15B25,2013-04-20 08:21:00,
2013-04-20 01:26:00,57.5,41.9,30.02,NNW,341,1.0,1.0,56,0.00,,,0.00,WeatherCatV1.15B25,2013-04-20 08:26:00,
2013-04-20 01:31:00,57.3,41.7,30.02,NNW,341,0.0,1.0,56,0.00,,,0.00,WeatherCatV1.15B25,2013-04-20 08:31:00,
2013-04-20 01:36:00,57.1,42.0,30.02,NNW,341,1.0,1.0,57,0.00,,,0.00,WeatherCatV1.15B25,2013-04-20 08:36:00,
2013-04-20 01:41:00,56.9,41.8,30.02,NNW,331,1.0,3.0,57,0.00,,,0.00,WeatherCatV1.15B25,2013-04-20 08:41:00,
2013-04-20 01:46:00,57.0,41.9,30.01,NNW,332,0.0,1.0,57,0.00,,,0.00,WeatherCatV1.15B25,2013-04-20 08:46:00,
2013-04-20 01:51:00,56.9,41.8,30.01,NNW,332,1.0,2.0,57,0.00,,,0.00,WeatherCatV1.15B25,2013-04-20 08:51:00,
2013-04-20 01:56:00,56.7,41.6,30.01,NNW,335,1.0,2.0,57,0.00,,,0.00,WeatherCatV1.15B25,2013-04-20 08:56:00,
2013-04-20 02:01:00,56.6,41.5,30.01,NNW,337,2.0,4.0,57,0.00,,,0.00,WeatherCatV1.15B25,2013-04-20 09:01:00,
2013-04-20 02:06:00,56.8,41.7,30.01,NNW,336,3.0,4.0,57,0.00,,,0.00,WeatherCatV1.15B25,2013-04-20 09:06:00,
2013-04-20 02:11:00,56.8,41.7,30.01,NNW,335,4.0,4.0,57,0.00,,,0.00,WeatherCatV1.15B25,2013-04-20 09:11:00,
2013-04-20 02:16:00,56.8,41.7,30.01,NNW,340,1.0,4.0,57,0.00,,,0.00,WeatherCatV1.15B25,2013-04-20 09:16:00,
2013-04-20 02:21:00,56.6,42.0,30.01,NNW,334,5.0,5.0,58,0.00,,,0.00,WeatherCatV1.15B25,2013-04-20 09:21:00,
2013-04-20 02:26:00,56.6,42.0,30.01,NNW,337,2.0,3.0,58,0.00,,,0.00,WeatherCatV1.15B25,2013-04-20 09:26:00,
2013-04-20 02:31:00,56.8,41.7,30.00,ESE,106,4.0,6.0,57,0.00,,,0.00,WeatherCatV1.15B25,2013-04-20 09:31:00,
2013-04-20 02:36:00,56.8,41.7,30.00,NNW,329,6.0,6.0,57,0.00,,,0.00,WeatherCatV1.15B25,2013-04-20 09:36:00,
2013-04-20 02:41:00,56.8,41.7,30.00,North,356,3.0,8.0,57,0.00,,,0.00,WeatherCatV1.15B25,2013-04-20 09:41:00,
2013-04-20 02:46:00,56.9,41.8,30.00,NNW,341,3.0,7.0,57,0.00,,,0.00,WeatherCatV1.15B25,2013-04-20 09:46:00,
2013-04-20 02:51:00,56.5,42.3,30.00,NNW,343,6.0,6.0,59,0.00,,,0.00,WeatherCatV1.15B25,2013-04-20 09:51:00,
2013-04-20 02:56:00,56.1,42.0,30.00,NNW,339,0.0,2.0,59,0.00,,,0.00,WeatherCatV1.15B25,2013-04-20 09:56:00,
2013-04-20 03:01:00,55.9,42.2,30.00,NNW,339,0.0,0.0,60,0.00,,,0.00,WeatherCatV1.15B25,2013-04-20 10:01:00,
2013-04-20 03:06:00,55.7,42.0,30.00,NNW,339,0.0,0.0,60,0.00,,,0.00,WeatherCatV1.15B25,2013-04-20 10:06:00,
2013-04-20 03:11:00,55.5,42.3,30.00,NNW,337,0.0,1.0,61,0.00,,,0.00,WeatherCatV1.15B25,2013-04-20 10:11:00,
2013-04-20 03:16:00,55.5,42.3,30.00,NNW,340,2.0,2.0,61,0.00,,,0.00,WeatherCatV1.15B25,2013-04-20 10:16:00,
2013-04-20 03:21:00,55.5,42.3,30.00,NNW,334,2.0,4.0,61,0.00,,,0.00,WeatherCatV1.15B25,2013-04-20 10:21:00,
2013-04-20 03:26:00,56.5,42.3,30.00,NNW,336,3.0,5.0,59,0.00,,,0.00,WeatherCatV1.15B25,2013-04-20 10:26:00,
2013-04-20 03:31:00,57.6,42.5,30.00,NNW,343,3.0,6.0,57,0.00,,,0.00,WeatherCatV1.15B25,2013-04-20 10:31:00,
2013-04-20 03:36:00,58.3,42.2,30.00,NNW,338,4.0,5.0,55,0.00,,,0.00,WeatherCatV1.15B25,2013-04-20 10:36:00,
2013-04-20 03:41:00,58.7,41.6,30.00,NNW,329,4.0,9.0,53,0.00,,,0.00,WeatherCatV1.15B25,2013-04-20 10:41:00,
2013-04-20 03:46:00,58.7,41.6,30.00,NNW,337,4.0,6.0,53,0.00,,,0.00,WeatherCatV1.15B25,2013-04-20 10:46:00,
2013-04-20 03:51:00,58.4,41.3,30.00,NNW,331,6.0,8.0,53,0.00,,,0.00,WeatherCatV1.15B25,2013-04-20 10:51:00,
2013-04-20 03:56:00,58.3,40.8,30.00,NNW,328,8.0,8.0,52,0.00,,,0.00,WeatherCatV1.15B25,2013-04-20 10:56:00,
2013-04-20 04:01:00,58.2,40.7,29.99,NNW,337,9.0,11.0,52,0.00,,,0.00,WeatherCatV1.15B25,2013-04-20 11:01:00,
2013-04-20 04:06:00,58.2,40.2,29.99,NW,321,8.0,10.0,51,0.00,,,0.00,WeatherCatV1.15B25,2013-04-20 11:06:00,
2013-04-20 04:11:00,58.6,39.0,29.99,NNW,348,8.0,15.0,48,0.00,,,0.00,WeatherCatV1.15B25,2013-04-20 11:11:00,
2013-04-20 04:16:00,58.9,38.7,29.99,NNW,341,7.0,9.0,47,0.00,,,0.00,WeatherCatV1.15B25,2013-04-20 11:16:00,
2013-04-20 04:21:00,59.2,37.9,29.99,NW,321,8.0,15.0,45,0.00,,,0.00,WeatherCatV1.15B25,2013-04-20 11:21:00,
2013-04-20 04:26:00,59.5,37.6,29.99,NNW,332,10.0,13.0,44,0.00,,,0.00,WeatherCatV1.15B25,2013-04-20 11:26:00,
2013-04-20 04:31:00,59.5,37.6,29.98,NNW,332,4.0,14.0,44,0.00,,,0.00,WeatherCatV1.15B25,2013-04-20 11:31:00,
2013-04-20 04:36:00,59.5,37.6,29.98,NNW,335,10.0,15.0,44,0.00,,,0.00,WeatherCatV1.15B25,2013-04-20 11:36:00,
2013-04-20 04:41:00,59.7,37.8,29.98,North,352,5.0,11.0,44,0.00,,,0.00,WeatherCatV1.15B25,2013-04-20 11:41:00,
2013-04-20 04:46:00,59.7,37.2,29.98,NNW,345,7.0,10.0,43,0.00,,,0.00,WeatherCatV1.15B25,2013-04-20 11:46:00,
2013-04-20 04:51:00,59.6,37.1,29.98,NNW,341,11.0,14.0,43,0.00,,,0.00,WeatherCatV1.15B25,2013-04-20 11:51:00,
2013-04-20 04:56:00,59.6,36.5,29.98,NNW,343,8.0,14.0,42,0.00,,,0.00,WeatherCatV1.15B25,2013-04-20 11:56:00,
2013-04-20 05:01:00,59.4,36.9,29.98,NNW,333,12.0,15.0,43,0.00,,,0.00,WeatherCatV1.15B25,2013-04-20 12:01:00,
2013-04-20 05:06:00,59.3,36.8,29.98,North,5,4.0,14.0,43,0.00,,,0.00,WeatherCatV1.15B25,2013-04-20 12:06:00,
2013-04-20 05:11:00,59.2,36.7,29.98,NNW,344,13.0,18.0,43,0.00,,,0.00,WeatherCatV1.15B25,2013-04-20 12:11:00,
2013-04-20 05:16:00,59.2,36.7,29.98,NNW,339,8.0,14.0,43,0.00,,,0.00,WeatherCatV1.15B25,2013-04-20 12:16:00,
2013-04-20 05:21:00,59.2,36.1,29.98,North,352,4.0,12.0,42,0.00,,,0.00,WeatherCatV1.15B25,2013-04-20 12:21:00,
2013-04-20 05:26:00,59.3,36.2,29.98,NNW,331,8.0,8.0,42,0.00,,,0.00,WeatherCatV1.15B25,2013-04-20 12:26:00,
2013-04-20 05:31:00,59.2,36.1,29.98,NNW,338,8.0,9.0,42,0.00,,,0.00,WeatherCatV1.15B25,2013-04-20 12:31:00,
2013-04-20 05:36:00,59.1,36.0,29.98,NNW,344,7.0,9.0,42,0.00,,,0.00,WeatherCatV1.15B25,2013-04-20 12:36:00,
2013-04-20 05:41:00,59.0,35.3,29.98,NNW,335,8.0,10.0,41,0.00,,,0.00,WeatherCatV1.15B25,2013-04-20 12:41:00,
2013-04-20 05:46:00,59.3,35.6,29.98,NNW,343,4.0,8.0,41,0.00,,,0.00,WeatherCatV1.15B25,2013-04-20 12:46:00,
2013-04-20 05:51:00,59.1,36.0,29.98,WNW,296,3.0,9.0,42,0.00,,,0.00,WeatherCatV1.15B25,2013-04-20 12:51:00,
2013-04-20 05:56:00,59.0,35.9,29.98,NNW,330,6.0,13.0,42,0.00,,,0.00,WeatherCatV1.15B25,2013-04-20 12:56:00,
2013-04-20 06:01:00,58.9,35.8,29.97,NNW,339,8.0,11.0,42,0.00,,,0.00,WeatherCatV1.15B25,2013-04-20 13:01:00,
2013-04-20 06:06:00,58.8,35.8,29.97,NNW,347,7.0,9.0,42,0.00,,,0.00,WeatherCatV1.15B25,2013-04-20 13:06:00,
2013-04-20 06:11:00,58.7,36.3,29.97,NNW,345,5.0,7.0,43,0.00,,,0.00,WeatherCatV1.15B25,2013-04-20 13:11:00,
2013-04-20 06:16:00,58.4,36.0,29.98,NNW,335,6.0,8.0,43,0.00,,,0.00,WeatherCatV1.15B25,2013-04-20 13:16:00,
2013-04-20 06:21:00,58.5,35.5,29.98,NNW,329,7.0,8.0,42,0.00,,,0.00,WeatherCatV1.15B25,2013-04-20 13:21:00,
2013-04-20 06:26:00,58.5,35.5,29.98,NNW,343,8.0,11.0,42,0.00,,,0.00,WeatherCatV1.15B25,2013-04-20 13:26:00,
2013-04-20 06:31:00,58.7,35.7,29.98,North,358,4.0,10.0,42,0.00,,,0.00,WeatherCatV1.15B25,2013-04-20 13:31:00,
2013-04-20 06:36:00,58.9,35.2,29.98,ENE,78,3.0,12.0,41,0.00,,,0.00,WeatherCatV1.15B25,2013-04-20 13:36:00,
2013-04-20 06:41:00,59.1,35.4,29.98,NNW,329,6.0,10.0,41,0.00,,,0.00,WeatherCatV1.15B25,2013-04-20 13:41:00,
2013-04-20 06:46:00,59.0,35.3,29.98,NNW,332,6.0,9.0,41,0.00,,,0.00,WeatherCatV1.15B25,2013-04-20 13:46:00,
2013-04-20 06:51:00,59.0,34.7,29.98,North,351,6.0,9.0,40,0.00,,,0.00,WeatherCatV1.15B25,2013-04-20 13:51:00,
2013-04-20 06:56:00,58.9,34.6,29.98,NNW,334,7.0,11.0,40,0.00,,,0.00,WeatherCatV1.15B25,2013-04-20 13:56:00,
2013-04-20 07:01:00,59.0,34.7,29.98,NNW,332,5.0,10.0,40,0.00,,,0.00,WeatherCatV1.15B25,2013-04-20 14:01:00,
2013-04-20 07:06:00,58.8,35.2,29.98,North,355,7.0,12.0,41,0.00,,,0.00,WeatherCatV1.15B25,2013-04-20 14:06:00,
2013-04-20 07:11:00,58.9,34.6,29.98,NNW,335,6.0,12.0,40,0.00,,,0.00,WeatherCatV1.15B25,2013-04-20 14:11:00,
2013-04-20 07:16:00,59.1,34.8,29.98,NNW,335,9.0,10.0,40,0.00,,,0.00,WeatherCatV1.15B25,2013-04-20 14:16:00,
2013-04-20 07:21:00,59.1,34.8,29.98,North,357,7.0,12.0,40,0.00,,,0.00,WeatherCatV1.15B25,2013-04-20 14:21:00,
2013-04-20 07:26:00,59.1,35.4,29.98,NNW,328,7.0,8.0,41,0.00,,,0.00,WeatherCatV1.15B25,2013-04-20 14:26:00,
2013-04-20 07:31:00,59.1,34.8,29.98,NNW,341,7.0,15.0,40,0.00,,,0.00,WeatherCatV1.15B25,2013-04-20 14:31:00,
2013-04-20 07:36:00,59.2,35.5,29.98,NNW,327,11.0,11.0,41,0.00,,,0.00,WeatherCatV1.15B25,2013-04-20 14:36:00,
2013-04-20 07:41:00,59.3,35.6,29.98,NNW,335,9.0,14.0,41,0.00,,,0.00,WeatherCatV1.15B25,2013-04-20 14:41:00,
2013-04-20 07:46:00,59.2,35.5,29.97,NNW,348,7.0,11.0,41,0.00,,,0.00,WeatherCatV1.15B25,2013-04-20 14:46:00,
2013-04-20 07:51:00,59.3,35.0,29.97,NNW,339,6.0,11.0,40,0.00,,,0.00,WeatherCatV1.15B25,2013-04-20 14:51:00,
2013-04-20 07:56:00,59.4,35.7,29.97,NNW,328,9.0,12.0,41,0.00,,,0.00,WeatherCatV1.15B25,2013-04-20 14:56:00,
2013-04-20 08:01:00,59.4,35.7,29.98,NNW,327,8.0,13.0,41,0.00,,,0.00,WeatherCatV1.15B25,2013-04-20 15:01:00,
2013-04-20 08:06:00,59.5,35.2,29.98,NW,321,10.0,13.0,40,0.00,,,0.00,WeatherCatV1.15B25,2013-04-20 15:06:00,
2013-04-20 08:11:00,59.6,35.2,29.98,NNW,348,7.0,9.0,40,0.00,,,0.00,WeatherCatV1.15B25,2013-04-20 15:11:00,
2013-04-20 08:16:00,59.6,36.5,29.98,NNW,337,6.0,9.0,42,0.00,,,0.00,WeatherCatV1.15B25,2013-04-20 15:16:00,
2013-04-20 08:21:00,59.7,36.0,29.98,NW,326,9.0,10.0,41,0.00,,,0.00,WeatherCatV1.15B25,2013-04-20 15:21:00,
2013-04-20 08:26:00,59.7,36.6,29.98,North,349,6.0,8.0,42,0.00,,,0.00,WeatherCatV1.15B25,2013-04-20 15:26:00,
2013-04-20 08:31:00,59.8,36.1,29.98,North,358,3.0,9.0,41,0.00,,,0.00,WeatherCatV1.15B25,2013-04-20 15:31:00,
2013-04-20 08:36:00,59.9,37.3,29.98,North,356,5.0,8.0,43,0.00,,,0.00,WeatherCatV1.15B25,2013-04-20 15:36:00,
2013-04-20 08:41:00,60.0,36.2,29.98,NNW,328,10.0,10.0,41,0.00,,,0.00,WeatherCatV1.15B25,2013-04-20 15:41:00,
2013-04-20 08:46:00,60.1,35.7,29.98,NNW,343,7.0,8.0,40,0.00,,,0.00,WeatherCatV1.15B25,2013-04-20 15:46:00,
2013-04-20 08:51:00,60.3,35.9,29.98,NW,326,8.0,9.0,40,0.00,,,0.00,WeatherCatV1.15B25,2013-04-20 15:51:00,
2013-04-20 08:56:00,60.5,36.7,29.98,SE,133,4.0,7.0,41,0.00,,,0.00,WeatherCatV1.15B25,2013-04-20 15:56:00,
2013-04-20 09:01:00,60.5,36.1,29.98,NNW,330,5.0,8.0,40,0.00,,,0.00,WeatherCatV1.15B25,2013-04-20 16:01:00,
2013-04-20 09:06:00,60.7,36.2,29.98,NNW,341,4.0,8.0,40,0.00,,,0.00,WeatherCatV1.15B25,2013-04-20 16:06:00,
2013-04-20 09:11:00,60.7,36.2,29.98,SSE,148,2.0,9.0,40,0.00,,,0.00,WeatherCatV1.15B25,2013-04-20 16:11:00,
2013-04-20 09:16:00,60.9,36.4,29.98,North,350,1.0,5.0,40,0.00,,,0.00,WeatherCatV1.15B25,2013-04-20 16:16:00,
2013-04-20 09:21:00,61.0,37.1,29.98,NNW,334,2.0,5.0,41,0.00,,,0.00,WeatherCatV1.15B25,2013-04-20 16:21:00,
2013-04-20 09:26:00,61.2,37.9,29.98,WNW,298,1.0,1.0,42,0.00,,,0.00,WeatherCatV1.15B25,2013-04-20 16:26:00,
2013-04-20 09:31:00,61.5,37.0,29.98,NNW,336,4.0,5.0,40,0.00,,,0.00,WeatherCatV1.15B25,2013-04-20 16:31:00,
2013-04-20 09:36:00,61.6,37.0,29.98,NNW,344,3.0,7.0,40,0.00,,,0.00,WeatherCatV1.15B25,2013-04-20 16:36:00,
2013-04-20 09:41:00,61.7,36.5,29.98,NW,310,8.0,8.0,39,0.00,,,0.00,WeatherCatV1.15B25,2013-04-20 16:41:00,
2013-04-20 09:46:00,62.0,36.8,29.98,NNW,344,4.0,4.0,39,0.00,,,0.00,WeatherCatV1.15B25,2013-04-20 16:46:00,
2013-04-20 09:51:00,62.2,37.6,29.98,NNW,336,4.0,4.0,40,0.00,,,0.00,WeatherCatV1.15B25,2013-04-20 16:51:00,
2013-04-20 09:56:00,62.5,37.8,29.98,North,0,0.0,2.0,40,0.00,,,0.00,WeatherCatV1.15B25,2013-04-20 16:56:00,
2013-04-20 10:01:00,63.2,37.2,29.98,SSE,152,1.0,3.0,38,0.00,,,0.00,WeatherCatV1.15B25,2013-04-20 17:01:00,
2013-04-20 10:06:00,63.9,37.1,29.98,SE,142,0.0,1.0,37,0.00,,,0.00,WeatherCatV1.15B25,2013-04-20 17:06:00,
2013-04-20 10:11:00,64.2,38.1,29.98,NNW,341,1.0,1.0,38,0.00,,,0.00,WeatherCatV1.15B25,2013-04-20 17:11:00,
2013-04-20 10:16:00,64.3,40.1,29.99,NNW,335,0.0,0.0,41,0.00,,,0.00,WeatherCatV1.15B25,2013-04-20 17:16:00,
2013-04-20 10:21:00,65.0,39.4,29.99,North,351,0.0,2.0,39,0.00,,,0.00,WeatherCatV1.15B25,2013-04-20 17:21:00,
2013-04-20 10:26:00,65.6,38.6,29.99,NNW,335,0.0,5.0,37,0.00,,,0.00,WeatherCatV1.15B25,2013-04-20 17:26:00,
2013-04-20 10:31:00,65.6,37.2,29.99,North,359,0.0,5.0,35,0.00,,,0.00,WeatherCatV1.15B25,2013-04-20 17:31:00,
2013-04-20 10:36:00,65.4,37.7,29.99,NNW,339,1.0,3.0,36,0.00,,,0.00,WeatherCatV1.15B25,2013-04-20 17:36:00,
2013-04-20 10:41:00,65.3,36.2,29.99,NNW,332,0.0,5.0,34,0.00,,,0.00,WeatherCatV1.15B25,2013-04-20 17:41:00,
2013-04-20 10:46:00,65.4,38.4,29.99,NNE,27,1.0,1.0,37,0.00,,,0.00,WeatherCatV1.15B25,2013-04-20 17:46:00,
2013-04-20 10:51:00,65.6,37.2,29.99,North,0,1.0,2.0,35,0.00,,,0.00,WeatherCatV1.15B25,2013-04-20 17:51:00,
2013-04-20 10:53:00,65.6,38.6,29.99,North,0,0.0,1.0,37,0.00,,,0.00,WeatherCatV1.15B25,2013-04-20 17:53:00,
2013-04-20 10:58:00,65.7,37.3,29.99,NNW,333,0.0,2.0,35,0.00,,,0.00,WeatherCatV1.15B25,2013-04-20 17:58:00,
2013-04-20 11:03:00,66.1,40.4,30.00,NNE,13,0.0,0.0,39,0.00,,,0.00,WeatherCatV1.15B25,2013-04-20 18:03:00,
2013-04-20 11:08:00,67.0,39.9,30.00,NNW,335,3.0,3.0,37,0.00,,,0.00,WeatherCatV1.15B25,2013-04-20 18:08:00,
2013-04-20 11:13:00,67.6,39.7,30.00,NNW,340,1.0,2.0,36,0.00,,,0.00,WeatherCatV1.15B25,2013-04-20 18:13:00,
2013-04-20 11:18:00,68.1,38.7,30.00,NNW,341,1.0,3.0,34,0.00,,,0.00,WeatherCatV1.15B25,2013-04-20 18:18:00,
2013-04-20 11:23:00,68.0,37.8,30.00,NE,42,0.0,1.0,33,0.00,,,0.00,WeatherCatV1.15B25,2013-04-20 18:23:00,
2013-04-20 11:28:00,68.3,38.8,30.00,NE,34,2.0,2.0,34,0.00,,,0.00,WeatherCatV1.15B25,2013-04-20 18:28:00,
2013-04-20 11:33:00,68.8,39.3,30.00,North,8,1.0,3.0,34,0.00,,,0.00,WeatherCatV1.15B25,2013-04-20 18:33:00,
2013-04-20 11:38:00,69.2,37.3,30.00,NNE,33,0.0,1.0,31,0.00,,,0.00,WeatherCatV1.15B25,2013-04-20 18:38:00,
2013-04-20 11:43:00,69.7,38.5,30.00,NNW,337,0.0,2.0,32,0.00,,,0.00,WeatherCatV1.15B25,2013-04-20 18:43:00,
2013-04-20 11:48:00,70.7,36.9,30.00,North,350,1.0,2.0,29,0.00,,,0.00,WeatherCatV1.15B25,2013-04-20 18:48:00,
2013-04-20 11:53:00,70.8,37.0,30.00,NNW,343,2.0,5.0,29,0.00,,,0.00,WeatherCatV1.15B25,2013-04-20 18:53:00,
2013-04-20 11:58:00,70.4,37.5,30.00,NNW,337,2.0,3.0,30,0.00,,,0.00,WeatherCatV1.15B25,2013-04-20 18:58:00,
2013-04-20 12:03:00,70.2,37.3,30.00,South,180,0.0,2.0,30,0.00,,,0.00,WeatherCatV1.15B25,2013-04-20 19:03:00,
2013-04-20 12:08:00,71.0,38.8,30.00,South,175,0.0,0.0,31,0.00,,,0.00,WeatherCatV1.15B25,2013-04-20 19:08:00,
2013-04-20 12:13:00,71.8,37.8,30.00,ESE,114,1.0,2.0,29,0.00,,,0.00,WeatherCatV1.15B25,2013-04-20 19:13:00,
2013-04-20 12:18:00,72.5,37.5,29.99,SE,126,1.0,2.0,28,0.00,,,0.00,WeatherCatV1.15B25,2013-04-20 19:18:00,
2013-04-20 12:23:00,72.4,38.3,29.99,NNW,342,3.0,3.0,29,0.00,,,0.00,WeatherCatV1.15B25,2013-04-20 19:23:00,
2013-04-20 12:28:00,72.1,37.2,29.99,NW,324,3.0,4.0,28,0.00,,,0.00,WeatherCatV1.15B25,2013-04-20 19:28:00,
2013-04-20 12:33:00,71.8,36.9,29.99,North,11,1.0,1.0,28,0.00,,,0.00,WeatherCatV1.15B25,2013-04-20 19:33:00,
2013-04-20 12:38:00,71.3,35.6,29.99,NNW,336,3.0,4.0,27,0.00,,,0.00,WeatherCatV1.15B25,2013-04-20 19:38:00,
2013-04-20 12:43:00,70.9,35.2,29.99,NNW,335,2.0,6.0,27,0.00,,,0.00,WeatherCatV1.15B25,2013-04-20 19:43:00,
2013-04-20 12:48:00,71.1,36.3,29.98,NNW,333,3.0,3.0,28,0.00,,,0.00,WeatherCatV1.15B25,2013-04-20 19:48:00,
2013-04-20 12:53:00,71.5,32.8,29.98,NNW,343,2.0,5.0,24,0.00,,,0.00,WeatherCatV1.15B25,2013-04-20 19:53:00,
2013-04-20 12:58:00,71.4,36.6,29.98,NNW,329,1.0,2.0,28,0.00,,,0.00,WeatherCatV1.15B25,2013-04-20 19:58:00,
2013-04-20 13:03:00,71.9,33.1,29.98,NNW,338,2.0,2.0,24,0.00,,,0.00,WeatherCatV1.15B25,2013-04-20 20:03:00,
2013-04-20 13:08:00,72.7,40.3,29.98,South,169,0.0,0.0,31,0.00,,,0.00,WeatherCatV1.15B25,2013-04-20 20:08:00,
2013-04-20 13:13:00,73.8,45.9,29.98,NNE,14,0.0,2.0,37,0.00,,,0.00,WeatherCatV1.15B25,2013-04-20 20:13:00,
2013-04-20 13:18:00,74.6,45.9,29.98,North,356,1.0,2.0,36,0.00,,,0.00,WeatherCatV1.15B25,2013-04-20 20:18:00,
2013-04-20 13:23:00,74.9,46.9,29.98,North,352,1.0,3.0,37,0.00,,,0.00,WeatherCatV1.15B25,2013-04-20 20:23:00,
2013-04-20 13:28:00,75.2,44.9,29.98,SE,132,2.0,2.0,34,0.00,,,0.00,WeatherCatV1.15B25,2013-04-20 20:28:00,
2013-04-20 13:33:00,75.5,45.1,29.97,SSE,162,0.0,1.0,34,0.00,,,0.00,WeatherCatV1.15B25,2013-04-20 20:33:00,
2013-04-20 13:38:00,75.5,43.6,29.97,North,356,0.0,3.0,32,0.00,,,0.00,WeatherCatV1.15B25,2013-04-20 20:38:00,
2013-04-20 13:43:00,75.2,41.6,29.97,NNW,332,1.0,2.0,30,0.00,,,0.00,WeatherCatV1.15B25,2013-04-20 20:43:00,
2013-04-20 13:48:00,74.6,40.2,29.97,NNW,327,1.0,2.0,29,0.00,,,0.00,WeatherCatV1.15B25,2013-04-20 20:48:00,
2013-04-20 13:53:00,73.7,39.5,29.97,NW,320,4.0,5.0,29,0.00,,,0.00,WeatherCatV1.15B25,2013-04-20 20:53:00,
2013-04-20 13:58:00,73.4,40.9,29.97,ESE,106,0.0,2.0,31,0.00,,,0.00,WeatherCatV1.15B25,2013-04-20 20:58:00,
2013-04-20 14:03:00,73.8,41.3,29.97,East,100,0.0,0.0,31,0.00,,,0.00,WeatherCatV1.15B25,2013-04-20 21:03:00,
2013-04-20 14:08:00,74.2,44.0,29.97,SSE,160,0.0,1.0,34,0.00,,,0.00,WeatherCatV1.15B25,2013-04-20 21:08:00,
2013-04-20 14:13:00,74.6,40.2,29.97,ESE,123,1.0,1.0,29,0.00,,,0.00,WeatherCatV1.15B25,2013-04-20 21:13:00,
2013-04-20 14:18:00,75.0,46.2,29.96,SSE,156,0.0,1.0,36,0.00,,,0.00,WeatherCatV1.15B25,2013-04-20 21:18:00,
2013-04-20 14:23:00,75.0,46.2,29.96,SE,126,1.0,1.0,36,0.00,,,0.00,WeatherCatV1.15B25,2013-04-20 21:23:00,
2013-04-20 14:28:00,74.9,46.9,29.96,ENE,69,1.0,1.0,37,0.00,,,0.00,WeatherCatV1.15B25,2013-04-20 21:28:00,
2013-04-20 14:33:00,74.9,45.4,29.96,SSE,152,1.0,1.0,35,0.00,,,0.00,WeatherCatV1.15B25,2013-04-20 21:33:00,
2013-04-20 14:38:00,74.8,46.8,29.96,SE,139,0.0,0.0,37,0.00,,,0.00,WeatherCatV1.15B25,2013-04-20 21:38:00,
2013-04-20 14:43:00,74.8,45.3,29.96,ENE,64,0.0,1.0,35,0.00,,,0.00,WeatherCatV1.15B25,2013-04-20 21:43:00,
2013-04-20 14:48:00,74.4,46.4,29.96,SE,144,1.0,1.0,37,0.00,,,0.00,WeatherCatV1.15B25,2013-04-20 21:48:00,
2013-04-20 14:53:00,74.2,46.2,29.96,SE,138,0.0,0.0,37,0.00,,,0.00,WeatherCatV1.15B25,2013-04-20 21:53:00,
2013-04-20 14:58:00,74.2,45.5,29.96,SE,131,1.0,2.0,36,0.00,,,0.00,WeatherCatV1.15B25,2013-04-20 21:58:00,
2013-04-20 15:03:00,74.2,47.6,29.96,SSE,150,0.0,0.0,39,0.00,,,0.00,WeatherCatV1.15B25,2013-04-20 22:03:00,
2013-04-20 15:08:00,74.1,45.4,29.96,SSE,156,1.0,1.0,36,0.00,,,0.00,WeatherCatV1.15B25,2013-04-20 22:08:00,
2013-04-20 15:13:00,74.0,45.3,29.96,SE,139,0.0,1.0,36,0.00,,,0.00,WeatherCatV1.15B25,2013-04-20 22:13:00,
2013-04-20 15:18:00,74.0,44.6,29.96,NW,314,1.0,5.0,35,0.00,,,0.00,WeatherCatV1.15B25,2013-04-20 22:18:00,
2013-04-20 15:23:00,73.8,45.2,29.96,NNW,344,0.0,1.0,36,0.00,,,0.00,WeatherCatV1.15B25,2013-04-20 22:23:00,
2013-04-20 15:28:00,73.9,44.5,29.96,ESE,117,0.0,1.0,35,0.00,,,0.00,WeatherCatV1.15B25,2013-04-20 22:28:00,
2013-04-20 15:33:00,74.2,40.8,29.96,SE,135,0.0,2.0,30,0.00,,,0.00,WeatherCatV1.15B25,2013-04-20 22:33:00,
2013-04-20 15:38:00,74.5,40.1,29.96,SE,138,1.0,3.0,29,0.00,,,0.00,WeatherCatV1.15B25,2013-04-20 22:38:00,
2013-04-20 15:43:00,74.5,40.1,29.96,NNE,30,0.0,2.0,29,0.00,,,0.00,WeatherCatV1.15B25,2013-04-20 22:43:00,
2013-04-20 15:48:00,74.2,39.0,29.95,North,351,0.0,2.0,28,0.00,,,0.00,WeatherCatV1.15B25,2013-04-20 22:48:00,
2013-04-20 15:53:00,74.0,39.7,29.95,NE,44,1.0,1.0,29,0.00,,,0.00,WeatherCatV1.15B25,2013-04-20 22:53:00,
2013-04-20 15:58:00,73.9,38.7,29.95,ESE,122,0.0,0.0,28,0.00,,,0.00,WeatherCatV1.15B25,2013-04-20 22:58:00,
2013-04-20 16:03:00,73.9,38.7,29.94,NNW,339,0.0,3.0,28,0.00,,,0.00,WeatherCatV1.15B25,2013-04-20 23:03:00,
2013-04-20 16:08:00,73.5,38.4,29.94,NNW,334,1.0,1.0,28,0.00,,,0.00,WeatherCatV1.15B25,2013-04-20 23:08:00,
2013-04-20 16:13:00,73.2,38.1,29.94,NNE,13,0.0,5.0,28,0.00,,,0.00,WeatherCatV1.15B25,2013-04-20 23:13:00,
2013-04-20 16:18:00,73.0,38.0,29.94,NE,39,0.0,2.0,28,0.00,,,0.00,WeatherCatV1.15B25,2013-04-20 23:18:00,
2013-04-20 16:23:00,73.1,39.8,29.94,NNW,340,4.0,4.0,30,0.00,,,0.00,WeatherCatV1.15B25,2013-04-20 23:23:00,
2013-04-20 16:28:00,72.9,37.9,29.94,NNW,341,0.0,4.0,28,0.00,,,0.00,WeatherCatV1.15B25,2013-04-20 23:28:00,
2013-04-20 16:33:00,72.8,38.7,29.94,NNW,342,2.0,2.0,29,0.00,,,0.00,WeatherCatV1.15B25,2013-04-20 23:33:00,
2013-04-20 16:38:00,72.5,37.5,29.94,NNW,345,4.0,4.0,28,0.00,,,0.00,WeatherCatV1.15B25,2013-04-20 23:38:00,
2013-04-20 16:43:00,72.4,37.4,29.94,North,4,4.0,4.0,28,0.00,,,0.00,WeatherCatV1.15B25,2013-04-20 23:43:00,
2013-04-20 16:48:00,72.2,37.3,29.94,NE,45,0.0,3.0,28,0.00,,,0.00,WeatherCatV1.15B25,2013-04-20 23:48:00,
2013-04-20 16:53:00,72.2,37.3,29.94,NNW,333,3.0,8.0,28,0.00,,,0.00,WeatherCatV1.15B25,2013-04-20 23:53:00,
2013-04-20 16:58:00,72.0,38.0,29.94,North,359,2.0,2.0,29,0.00,,,0.00,WeatherCatV1.15B25,2013-04-20 23:58:00,
2013-04-20 17:03:00,71.9,38.8,29.94,NNW,341,1.0,4.0,30,0.00,,,0.00,WeatherCatV1.15B25,2013-04-21 00:03:00,
2013-04-20 17:08:00,71.6,40.2,29.94,NNE,22,1.0,2.0,32,0.00,,,0.00,WeatherCatV1.15B25,2013-04-21 00:08:00,
2013-04-20 17:13:00,71.4,40.8,29.94,NNE,23,1.0,8.0,33,0.00,,,0.00,WeatherCatV1.15B25,2013-04-21 00:13:00,
2013-04-20 17:18:00,71.2,41.4,29.94,NNW,347,0.0,4.0,34,0.00,,,0.00,WeatherCatV1.15B25,2013-04-21 00:18:00,
2013-04-20 17:23:00,71.0,41.2,29.94,North,10,1.0,6.0,34,0.00,,,0.00,WeatherCatV1.15B25,2013-04-21 00:23:00,
2013-04-20 17:28:00,70.8,41.0,29.94,NNW,335,1.0,4.0,34,0.00,,,0.00,WeatherCatV1.15B25,2013-04-21 00:28:00,
2013-04-20 17:33:00,70.6,40.9,29.94,NNE,13,0.0,3.0,34,0.00,,,0.00,WeatherCatV1.15B25,2013-04-21 00:33:00,
2013-04-20 17:38:00,70.5,40.8,29.94,North,350,1.0,3.0,34,0.00,,,0.00,WeatherCatV1.15B25,2013-04-21 00:38:00,
2013-04-20 17:43:00,70.3,40.6,29.94,NW,308,3.0,6.0,34,0.00,,,0.00,WeatherCatV1.15B25,2013-04-21 00:43:00,
2013-04-20 17:48:00,70.1,40.4,29.94,NNW,341,3.0,5.0,34,0.00,,,0.00,WeatherCatV1.15B25,2013-04-21 00:48:00,
2013-04-20 17:53:00,69.9,40.2,29.94,North,5,1.0,4.0,34,0.00,,,0.00,WeatherCatV1.15B25,2013-04-21 00:53:00,
2013-04-20 17:58:00,69.6,39.2,29.94,NNW,335,2.0,6.0,33,0.00,,,0.00,WeatherCatV1.15B25,2013-04-21 00:58:00,
2013-04-20 18:03:00,69.3,39.7,29.94,NNW,337,5.0,6.0,34,0.00,,,0.00,WeatherCatV1.15B25,2013-04-21 01:03:00,
2013-04-20 18:08:00,69.0,38.7,29.94,North,356,0.0,4.0,33,0.00,,,0.00,WeatherCatV1.15B25,2013-04-21 01:08:00,
2013-04-20 18:13:00,68.8,39.3,29.94,North,352,2.0,4.0,34,0.00,,,0.00,WeatherCatV1.15B25,2013-04-21 01:13:00,
2013-04-20 18:18:00,68.6,38.3,29.94,NW,310,6.0,6.0,33,0.00,,,0.00,WeatherCatV1.15B25,2013-04-21 01:18:00,
2013-04-20 18:23:00,68.5,39.0,29.94,NNW,343,5.0,6.0,34,0.00,,,0.00,WeatherCatV1.15B25,2013-04-21 01:23:00,
2013-04-20 18:28:00,68.3,38.8,29.94,NNW,335,4.0,5.0,34,0.00,,,0.00,WeatherCatV1.15B25,2013-04-21 01:28:00,
2013-04-20 18:33:00,68.1,38.7,29.94,NNW,338,2.0,4.0,34,0.00,,,0.00,WeatherCatV1.15B25,2013-04-21 01:33:00,
2013-04-20 18:38:00,67.9,38.5,29.94,NNE,14,1.0,3.0,34,0.00,,,0.00,WeatherCatV1.15B25,2013-04-21 01:38:00,
2013-04-20 18:43:00,67.7,38.3,29.94,NNW,348,2.0,4.0,34,0.00,,,0.00,WeatherCatV1.15B25,2013-04-21 01:43:00,
2013-04-20 18:48:00,67.5,38.1,29.94,NNW,348,2.0,4.0,34,0.00,,,0.00,WeatherCatV1.15B25,2013-04-21 01:48:00,
2013-04-20 18:53:00,67.3,38.0,29.94,NNW,341,2.0,4.0,34,0.00,,,0.00,WeatherCatV1.15B25,2013-04-21 01:53:00,
2013-04-20 18:58:00,67.0,38.4,29.94,NNW,329,3.0,3.0,35,0.00,,,0.00,WeatherCatV1.15B25,2013-04-21 01:58:00,
2013-04-20 19:03:00,66.7,38.9,29.94,NE,35,1.0,4.0,36,0.00,,,0.00,WeatherCatV1.15B25,2013-04-21 02:03:00,
2013-04-20 19:08:00,66.4,39.3,29.94,NNW,335,4.0,4.0,37,0.00,,,0.00,WeatherCatV1.15B25,2013-04-21 02:08:00,
2013-04-20 19:13:00,66.2,39.8,29.94,NNW,333,3.0,5.0,38,0.00,,,0.00,WeatherCatV1.15B25,2013-04-21 02:13:00,
2013-04-20 19:18:00,66.0,40.3,29.94,NNW,328,4.0,4.0,39,0.00,,,0.00,WeatherCatV1.15B25,2013-04-21 02:18:00,
2013-04-20 19:23:00,65.7,40.7,29.94,North,350,4.0,6.0,40,0.00,,,0.00,WeatherCatV1.15B25,2013-04-21 02:23:00,
2013-04-20 19:28:00,65.3,41.0,29.94,NNW,337,5.0,6.0,41,0.00,,,0.00,WeatherCatV1.15B25,2013-04-21 02:28:00,
2013-04-20 19:33:00,65.0,42.0,29.95,NW,309,4.0,5.0,43,0.00,,,0.00,WeatherCatV1.15B25,2013-04-21 02:33:00,
2013-04-20 19:38:00,64.8,42.4,29.95,NNW,335,5.0,6.0,44,0.00,,,0.00,WeatherCatV1.15B25,2013-04-21 02:38:00,
2013-04-20 19:43:00,64.4,42.6,29.95,NNW,332,2.0,4.0,45,0.00,,,0.00,WeatherCatV1.15B25,2013-04-21 02:43:00,
2013-04-20 19:48:00,64.1,42.9,29.95,NNW,327,4.0,5.0,46,0.00,,,0.00,WeatherCatV1.15B25,2013-04-21 02:48:00,
2013-04-20 19:53:00,63.8,43.2,29.95,NNW,344,4.0,6.0,47,0.00,,,0.00,WeatherCatV1.15B25,2013-04-21 02:53:00,
2013-04-20 19:58:00,63.5,43.5,29.95,NW,326,4.0,5.0,48,0.00,,,0.00,WeatherCatV1.15B25,2013-04-21 02:58:00,
2013-04-20 20:03:00,63.4,43.4,29.95,NNW,347,5.0,7.0,48,0.00,,,0.00,WeatherCatV1.15B25,2013-04-21 03:03:00,
2013-04-20 20:08:00,63.3,42.2,29.95,NNW,334,4.0,5.0,46,0.00,,,0.00,WeatherCatV1.15B25,2013-04-21 03:08:00,
2013-04-20 20:13:00,63.3,41.6,29.95,NNW,336,3.0,4.0,45,0.00,,,0.00,WeatherCatV1.15B25,2013-04-21 03:13:00,
2013-04-20 20:18:00,63.1,40.8,29.95,NNW,329,2.0,4.0,44,0.00,,,0.00,WeatherCatV1.15B25,2013-04-21 03:18:00,
2013-04-20 20:23:00,63.2,39.7,29.95,NNW,333,1.0,3.0,42,0.00,,,0.00,WeatherCatV1.15B25,2013-04-21 03:23:00,
2013-04-20 20:28:00,63.3,40.4,29.95,NNW,331,1.0,2.0,43,0.00,,,0.00,WeatherCatV1.15B25,2013-04-21 03:28:00,
2013-04-20 20:33:00,63.2,39.1,29.95,NNW,334,3.0,4.0,41,0.00,,,0.00,WeatherCatV1.15B25,2013-04-21 03:33:00,
2013-04-20 20:38:00,63.4,37.3,29.95,NNW,334,0.0,0.0,38,0.00,,,0.00,WeatherCatV1.15B25,2013-04-21 03:38:00,
2013-04-20 20:43:00,63.6,39.5,29.95,NNW,334,0.0,0.0,41,0.00,,,0.00,WeatherCatV1.15B25,2013-04-21 03:43:00,
2013-04-20 20:48:00,63.6,39.5,29.96,NNW,334,0.0,0.0,41,0.00,,,0.00,WeatherCatV1.15B25,2013-04-21 03:48:00,
2013-04-20 20:53:00,63.5,40.0,29.96,NNW,334,0.0,1.0,42,0.00,,,0.00,WeatherCatV1.15B25,2013-04-21 03:53:00,
2013-04-20 20:58:00,63.1,39.0,29.96,NNW,337,0.0,2.0,41,0.00,,,0.00,WeatherCatV1.15B25,2013-04-21 03:58:00,
2013-04-20 21:01:00,62.7,39.3,29.96,NNW,330,1.0,2.0,42,0.00,,,0.00,WeatherCatV1.15B25,2013-04-21 04:01:00,
2013-04-20 21:06:00,62.4,39.6,29.96,NNW,332,0.0,1.0,43,0.00,,,0.00,WeatherCatV1.15B25,2013-04-21 04:06:00,
2013-04-20 21:11:00,62.2,40.0,29.96,NNW,345,2.0,4.0,44,0.00,,,0.00,WeatherCatV1.15B25,2013-04-21 04:11:00,
2013-04-20 21:16:00,62.1,39.9,29.96,NNW,330,2.0,2.0,44,0.00,,,0.00,WeatherCatV1.15B25,2013-04-21 04:16:00,
2013-04-20 21:21:00,62.1,39.3,29.96,NNW,337,1.0,2.0,43,0.00,,,0.00,WeatherCatV1.15B25,2013-04-21 04:21:00,
2013-04-20 21:26:00,62.1,39.3,29.96,NNW,341,1.0,2.0,43,0.00,,,0.00,WeatherCatV1.15B25,2013-04-21 04:26:00,
2013-04-20 21:31:00,62.2,39.4,29.97,NNW,330,2.0,2.0,43,0.00,,,0.00,WeatherCatV1.15B25,2013-04-21 04:31:00,
2013-04-20 21:36:00,62.4,40.2,29.97,NNW,339,0.0,1.0,44,0.00,,,0.00,WeatherCatV1.15B25,2013-04-21 04:36:00,
2013-04-20 21:41:00,62.1,39.9,29.97,NNW,338,2.0,2.0,44,0.00,,,0.00,WeatherCatV1.15B25,2013-04-21 04:41:00,
2013-04-20 21:46:00,61.8,39.7,29.97,NNW,332,2.0,2.0,44,0.00,,,0.00,WeatherCatV1.15B25,2013-04-21 04:46:00,
2013-04-20 21:51:00,61.6,38.9,29.97,NNW,335,2.0,2.0,43,0.00,,,0.00,WeatherCatV1.15B25,2013-04-21 04:51:00,
2013-04-20 21:56:00,61.7,39.0,29.97,NNW,329,1.0,2.0,43,0.00,,,0.00,WeatherCatV1.15B25,2013-04-21 04:56:00,
2013-04-20 22:01:00,61.8,38.5,29.97,NNW,333,0.0,1.0,42,0.00,,,0.00,WeatherCatV1.15B25,2013-04-21 05:01:00,
2013-04-20 22:06:00,61.9,37.9,29.97,NNW,333,0.0,0.0,41,0.00,,,0.00,WeatherCatV1.15B25,2013-04-21 05:06:00,
2013-04-20 22:11:00,61.9,38.6,29.97,NNW,333,0.0,0.0,42,0.00,,,0.00,WeatherCatV1.15B25,2013-04-21 05:11:00,
2013-04-20 22:16:00,61.9,37.9,29.97,NNW,333,0.0,0.0,41,0.00,,,0.00,WeatherCatV1.15B25,2013-04-21 05:16:00,
2013-04-20 22:21:00,61.9,37.9,29.97,NNW,333,0.0,0.0,41,0.00,,,0.00,WeatherCatV1.15B25,2013-04-21 05:21:00,
2013-04-20 22:26:00,61.9,38.6,29.97,NNW,333,0.0,0.0,42,0.00,,,0.00,WeatherCatV1.15B25,2013-04-21 05:26:00,
2013-04-20 22:31:00,61.9,38.6,29.98,NNW,333,0.0,0.0,42,0.00,,,0.00,WeatherCatV1.15B25,2013-04-21 05:31:00,
2013-04-20 22:36:00,61.8,38.5,29.98,NNW,333,0.0,0.0,42,0.00,,,0.00,WeatherCatV1.15B25,2013-04-21 05:36:00,
2013-04-20 22:40:00,61.7,39.0,29.98,NNW,333,0.0,0.0,43,0.00,,,0.00,WeatherCatV1.15B25,2013-04-21 05:40:00,
2013-04-20 22:45:00,61.5,38.8,29.97,NNW,333,0.0,0.0,43,0.00,,,0.00,WeatherCatV1.15B25,2013-04-21 05:45:00,
2013-04-20 22:50:00,61.4,38.7,29.97,NNW,333,0.0,0.0,43,0.00,,,0.00,WeatherCatV1.15B25,2013-04-21 05:50:00,
2013-04-20 22:55:00,61.4,39.3,29.97,NNW,333,0.0,0.0,44,0.00,,,0.00,WeatherCatV1.15B25,2013-04-21 05:55:00,
2013-04-20 23:00:00,61.3,39.2,29.97,NNW,333,0.0,0.0,44,0.00,,,0.00,WeatherCatV1.15B25,2013-04-21 06:00:00,
2013-04-20 23:05:00,61.3,38.6,29.97,NNW,333,0.0,0.0,43,0.00,,,0.00,WeatherCatV1.15B25,2013-04-21 06:05:00,
2013-04-20 23:10:00,61.3,39.2,29.97,NNW,333,0.0,0.0,44,0.00,,,0.00,WeatherCatV1.15B25,2013-04-21 06:10:00,
2013-04-20 23:15:00,61.2,38.5,29.97,NNW,333,0.0,0.0,43,0.00,,,0.00,WeatherCatV1.15B25,2013-04-21 06:15:00,
2013-04-20 23:20:00,61.2,38.5,29.97,NNW,333,0.0,0.0,43,0.00,,,0.00,WeatherCatV1.15B25,2013-04-21 06:20:00,
2013-04-20 23:25:00,61.2,37.9,29.97,NNW,333,0.0,0.0,42,0.00,,,0.00,WeatherCatV1.15B25,2013-04-21 06:25:00,
2013-04-20 23:30:00,61.2,37.3,29.97,NNW,333,0.0,0.0,41,0.00,,,0.00,WeatherCatV1.15B25,2013-04-21 06:30:00,
2013-04-20 23:35:00,61.2,37.3,29.97,NNW,333,0.0,0.0,41,0.00,,,0.00,WeatherCatV1.15B25,2013-04-21 06:35:00,
2013-04-20 23:40:00,61.3,38.6,29.97,NNW,333,0.0,0.0,43,0.00,,,0.00,WeatherCatV1.15B25,2013-04-21 06:40:00,
2013-04-20 23:45:00,61.3,38.6,29.97,NNW,333,0.0,0.0,43,0.00,,,0.00,WeatherCatV1.15B25,2013-04-21 06:45:00,
2013-04-20 23:50:00,61.4,38.1,29.97,NNW,333,0.0,0.0,42,0.00,,,0.00,WeatherCatV1.15B25,2013-04-21 06:50:00,
2013-04-20 23:55:00,61.4,38.1,29.97,NNW,333,0.0,0.0,42,0.00,,,0.00,WeatherCatV1.15B25,2013-04-21 06:55:00,